createdAt,value
2019-02-26T00:00:12.791Z,82.70
2019-02-26T00:02:46.509Z,83.00
2019-02-26T00:05:21.376Z,83.00
2019-02-26T00:07:55.090Z,82.90
2019-02-26T00:10:26.812Z,83.10
2019-02-26T00:12:58.003Z,83.50
2019-02-26T00:15:33.355Z,83.40
2019-02-26T00:18:02.516Z,84.00
2019-02-26T00:20:34.372Z,82.90
2019-02-26T00:23:05.765Z,82.60
2019-02-26T00:25:35.837Z,82.00
2019-02-26T00:28:05.918Z,81.70
2019-02-26T00:30:37.865Z,81.80
2019-02-26T00:33:10.597Z,82.10
2019-02-26T00:35:41.628Z,82.30
2019-02-26T00:38:18.171Z,82.40
2019-02-26T00:40:47.029Z,82.70
2019-02-26T00:43:20.939Z,82.50
2019-02-26T00:45:51.068Z,82.60
2019-02-26T00:48:21.761Z,83.00
2019-02-26T00:50:56.532Z,83.70
2019-02-26T00:53:25.986Z,83.50
2019-02-26T00:55:59.381Z,83.70
2019-02-26T00:58:32.107Z,83.60
2019-02-26T01:01:02.933Z,82.90
2019-02-26T01:03:33.043Z,83.10
2019-02-26T01:06:05.910Z,82.90
2019-02-26T01:08:38.396Z,83.20
2019-02-26T01:11:16.256Z,84.00
2019-02-26T01:13:46.268Z,84.40
2019-02-26T01:16:17.963Z,84.40
2019-02-26T01:18:54.455Z,84.30
2019-02-26T01:21:22.172Z,84.60
2019-02-26T01:23:56.700Z,84.60
2019-02-26T01:26:27.345Z,84.50
2019-02-26T01:28:58.495Z,84.70
2019-02-26T01:31:29.286Z,84.90
2019-02-26T01:34:00.541Z,85.00
2019-02-26T01:36:38.234Z,85.20
2019-02-26T01:39:12.001Z,84.70
2019-02-26T01:41:45.453Z,84.00
2019-02-26T01:44:14.685Z,83.90
2019-02-26T01:46:47.744Z,83.70
2019-02-26T01:49:21.478Z,83.20
2019-02-26T01:51:51.850Z,83.80
2019-02-26T01:54:30.518Z,84.40
2019-02-26T01:57:01.147Z,84.40
2019-02-26T01:59:34.550Z,83.90
2019-02-26T02:02:05.222Z,83.70
2019-02-26T02:04:37.124Z,83.20
2019-02-26T02:07:09.542Z,83.20
2019-02-26T02:09:40.073Z,83.60
2019-02-26T02:12:11.189Z,84.20
2019-02-26T02:14:41.373Z,84.00
2019-02-26T02:17:14.497Z,84.10
2019-02-26T02:19:46.159Z,83.90
2019-02-26T02:22:24.643Z,85.60
2019-02-26T02:24:55.665Z,84.60
2019-02-26T02:27:32.993Z,84.30
2019-02-26T02:30:02.963Z,84.50
2019-02-26T02:32:34.508Z,84.40
2019-02-26T02:35:06.828Z,84.40
2019-02-26T02:37:38.517Z,84.10
2019-02-26T02:40:09.394Z,84.30
2019-02-26T02:42:43.130Z,84.20
2019-02-26T02:45:19.641Z,84.10
2019-02-26T02:47:48.229Z,84.50
2019-02-26T02:50:21.302Z,84.00
2019-02-26T02:52:53.359Z,83.60
2019-02-26T02:55:27.099Z,84.20
2019-02-26T02:58:00.508Z,84.30
2019-02-26T03:00:33.915Z,84.00
2019-02-26T03:03:02.438Z,83.70
2019-02-26T03:05:35.159Z,83.70
2019-02-26T03:08:05.291Z,83.80
2019-02-26T03:10:40.147Z,84.10
2019-02-26T03:13:09.771Z,84.20
2019-02-26T03:15:41.267Z,84.20
2019-02-26T03:18:14.090Z,84.30
2019-02-26T03:20:45.497Z,84.60
2019-02-26T03:23:20.003Z,84.50
2019-02-26T03:25:52.921Z,84.60
2019-02-26T03:28:22.591Z,84.60
2019-02-26T03:30:52.590Z,84.10
2019-02-26T03:33:22.674Z,84.40
2019-02-26T03:35:52.749Z,84.20
2019-02-26T03:38:26.865Z,84.30
2019-02-26T03:40:58.924Z,83.80
2019-02-26T03:43:30.892Z,83.80
2019-02-26T03:46:04.525Z,84.10
2019-02-26T03:48:33.880Z,84.40
2019-02-26T03:51:17.218Z,84.80
2019-02-26T03:53:45.625Z,84.20
2019-02-26T03:56:20.513Z,84.00
2019-02-26T03:58:54.390Z,84.10
2019-02-26T04:01:22.148Z,84.10
2019-02-26T04:03:54.701Z,84.20
2019-02-26T04:06:23.988Z,84.10
2019-02-26T04:08:55.975Z,84.20
2019-02-26T04:11:39.336Z,84.50
2019-02-26T04:14:12.572Z,84.40
2019-02-26T04:16:43.597Z,84.30
2019-02-26T04:19:15.097Z,84.20
2019-02-26T04:22:23.169Z,84.10
2019-02-26T04:24:56.003Z,84.20
2019-02-26T04:28:15.067Z,84.00
2019-02-26T04:31:16.085Z,84.20
2019-02-26T04:34:09.293Z,84.00
2019-02-26T04:37:12.911Z,83.40
2019-02-26T04:40:05.365Z,83.30
2019-02-26T04:43:18.242Z,83.70
2019-02-26T04:46:20.876Z,83.80
2019-02-26T04:48:51.109Z,83.60
2019-02-26T04:51:21.303Z,83.30
2019-02-26T04:53:53.697Z,82.60
2019-02-26T04:56:23.072Z,82.40
2019-02-26T04:58:54.205Z,82.10
2019-02-26T05:01:24.271Z,82.70
2019-02-26T05:03:54.358Z,82.40
2019-02-26T05:06:24.376Z,81.90
2019-02-26T05:08:56.886Z,82.10
2019-02-26T05:11:31.364Z,82.00
2019-02-26T05:13:59.247Z,82.60
2019-02-26T05:16:31.900Z,82.40
2019-02-26T05:19:06.303Z,82.30
2019-02-26T05:21:37.946Z,82.00
2019-02-26T05:24:13.069Z,82.30
2019-02-26T05:26:43.788Z,82.10
2019-02-26T05:29:14.061Z,81.80
2019-02-26T05:31:45.089Z,82.00
2019-02-26T05:34:18.090Z,81.80
2019-02-26T05:36:51.592Z,81.50
2019-02-26T05:39:23.639Z,81.70
2019-02-26T05:41:57.989Z,81.70
2019-02-26T05:44:26.780Z,81.70
2019-02-26T05:46:58.702Z,81.80
2019-02-26T05:49:33.850Z,81.90
2019-02-26T05:52:04.213Z,82.40
2019-02-26T05:54:35.350Z,81.80
2019-02-26T05:57:06.740Z,81.50
2019-02-26T05:59:38.308Z,81.70
2019-02-26T06:02:10.602Z,81.90
2019-02-26T06:04:40.940Z,81.30
2019-02-26T06:07:21.750Z,81.60
2019-02-26T06:09:48.352Z,81.50
2019-02-26T06:12:20.956Z,81.60
2019-02-26T06:14:54.029Z,80.40
2019-02-26T06:17:24.022Z,80.20
2019-02-26T06:19:57.230Z,80.00
2019-02-26T06:22:29.700Z,79.60
2019-02-26T06:25:03.159Z,78.90
2019-02-26T06:27:32.641Z,79.00
2019-02-26T06:30:05.892Z,79.00
2019-02-26T06:32:37.916Z,78.70
2019-02-26T06:35:11.023Z,78.00
2019-02-26T06:37:40.284Z,76.90
2019-02-26T06:40:13.280Z,75.60
2019-02-26T06:42:46.873Z,75.30
2019-02-26T06:45:20.720Z,70.90
2019-02-26T06:47:53.565Z,65.60
2019-02-26T06:50:23.242Z,59.90
2019-02-26T06:52:56.497Z,59.50
2019-02-26T06:55:28.181Z,57.90
2019-02-26T06:58:22.595Z,50.40
2019-02-26T07:00:57.242Z,44.40
2019-02-26T07:03:28.801Z,39.30
2019-02-26T07:06:01.719Z,37.60
2019-02-26T07:08:31.088Z,36.30
2019-02-26T07:11:01.271Z,35.40
2019-02-26T07:13:36.250Z,34.30
2019-02-26T07:16:06.227Z,34.40
2019-02-26T07:18:39.289Z,34.00
2019-02-26T07:21:10.677Z,34.20
2019-02-26T07:23:42.721Z,33.20
2019-02-26T07:26:13.624Z,32.00
2019-02-26T07:28:46.357Z,30.70
2019-02-26T07:31:16.213Z,29.70
2019-02-26T07:33:46.293Z,31.20
2019-02-26T07:36:18.340Z,33.10
2019-02-26T07:38:54.761Z,33.50
2019-02-26T07:41:27.842Z,34.50
2019-02-26T07:44:00.060Z,33.70
2019-02-26T07:46:33.711Z,33.40
2019-02-26T07:49:04.771Z,34.10
2019-02-26T07:51:38.596Z,33.00
2019-02-26T07:54:08.527Z,31.90
2019-02-26T07:56:38.613Z,28.90
2019-02-26T07:59:10.070Z,28.20
2019-02-26T08:01:42.277Z,28.10
2019-02-26T08:04:13.523Z,27.60
2019-02-26T08:06:48.815Z,27.20
2019-02-26T08:09:23.126Z,26.20
2019-02-26T08:11:52.510Z,23.80
2019-02-26T08:14:23.378Z,21.60
2019-02-26T08:16:56.133Z,20.60
2019-02-26T08:19:29.783Z,20.70
2019-02-26T08:21:59.733Z,20.00
2019-02-26T08:24:29.875Z,19.30
2019-02-26T08:27:01.434Z,19.00
2019-02-26T08:29:33.657Z,18.70
2019-02-26T08:32:03.568Z,18.20
2019-02-26T08:34:33.621Z,17.70
2019-02-26T08:37:04.828Z,18.90
2019-02-26T08:39:37.898Z,19.00
2019-02-26T08:42:08.753Z,17.70
2019-02-26T08:44:38.940Z,18.40
2019-02-26T08:47:11.506Z,19.10
2019-02-26T08:49:43.465Z,18.10
2019-02-26T08:52:17.509Z,17.60
2019-02-26T08:54:47.052Z,17.40
2019-02-26T08:57:17.146Z,17.90
2019-02-26T08:59:49.215Z,18.60
2019-02-26T09:02:19.104Z,18.50
2019-02-26T09:04:49.207Z,17.40
2019-02-26T09:07:21.309Z,18.20
2019-02-26T09:09:54.330Z,18.00
2019-02-26T09:12:24.617Z,17.00
2019-02-26T09:14:54.552Z,17.40
2019-02-26T09:17:26.894Z,17.20
2019-02-26T09:20:08.372Z,16.90
2019-02-26T09:22:28.495Z,17.00
2019-02-26T09:24:59.925Z,17.20
2019-02-26T09:27:32.115Z,17.30
2019-02-26T09:30:03.445Z,17.40
2019-02-26T09:32:35.022Z,17.30
2019-02-26T09:35:05.885Z,16.60
2019-02-26T09:37:35.967Z,16.90
2019-02-26T09:40:06.998Z,16.30
2019-02-26T09:42:36.989Z,16.70
2019-02-26T09:45:09.294Z,17.60
2019-02-26T09:47:39.284Z,17.50
2019-02-26T09:50:12.488Z,16.90
2019-02-26T09:52:42.018Z,17.30
2019-02-26T09:55:15.841Z,17.70
2019-02-26T09:57:46.277Z,17.50
2019-02-26T10:00:19.529Z,17.70
2019-02-26T10:02:49.562Z,18.30
2019-02-26T10:05:20.713Z,17.70
2019-02-26T10:07:52.302Z,18.00
2019-02-26T10:10:22.546Z,17.70
2019-02-26T10:12:54.327Z,17.50
2019-02-26T10:15:24.438Z,17.20
2019-02-26T10:17:56.204Z,17.90
2019-02-26T10:20:29.488Z,17.30
2019-02-26T10:23:00.776Z,18.10
2019-02-26T10:25:32.181Z,17.50
2019-02-26T10:28:05.767Z,17.70
2019-02-26T10:30:35.914Z,18.10
2019-02-26T10:33:07.627Z,17.90
2019-02-26T10:35:39.606Z,18.40
2019-02-26T10:38:11.506Z,17.50
2019-02-26T10:40:52.270Z,17.70
2019-02-26T10:43:13.157Z,18.10
2019-02-26T10:45:44.773Z,17.70
2019-02-26T10:48:16.848Z,19.10
2019-02-26T10:50:49.206Z,18.40
2019-02-26T10:53:20.376Z,18.50
2019-02-26T10:55:50.587Z,18.80
2019-02-26T10:58:20.650Z,19.60
2019-02-26T11:00:55.612Z,19.00
2019-02-26T11:03:24.911Z,19.00
2019-02-26T11:05:54.972Z,18.40
2019-02-26T11:08:28.960Z,19.20
2019-02-26T11:10:56.754Z,19.10
2019-02-26T11:13:29.808Z,19.30
2019-02-26T11:16:02.913Z,19.60
2019-02-26T11:18:31.613Z,19.00
2019-02-26T11:21:01.856Z,20.00
2019-02-26T11:23:34.026Z,23.10
2019-02-26T11:26:04.567Z,25.10
2019-02-26T11:28:37.852Z,28.20
2019-02-26T11:31:08.987Z,29.80
2019-02-26T11:33:39.159Z,30.40
2019-02-26T11:36:11.124Z,31.60
2019-02-26T11:38:47.080Z,32.80
2019-02-26T11:41:15.891Z,32.90
2019-02-26T11:43:45.987Z,33.80
2019-02-26T11:46:16.011Z,33.60
2019-02-26T11:48:47.589Z,34.80
2019-02-26T11:51:20.865Z,34.40
2019-02-26T11:53:50.885Z,33.20
2019-02-26T11:56:23.163Z,33.50
2019-02-26T11:58:52.737Z,33.70
2019-02-26T12:01:22.817Z,33.70
2019-02-26T12:03:56.228Z,33.00
2019-02-26T12:06:24.687Z,33.00
2019-02-26T12:08:54.839Z,32.70
2019-02-26T12:11:27.485Z,33.50
2019-02-26T12:13:57.565Z,34.20
2019-02-26T12:16:29.356Z,34.40
2019-02-26T12:19:04.067Z,36.50
2019-02-26T12:21:34.576Z,36.60
2019-02-26T12:24:08.907Z,36.00
2019-02-26T12:26:37.039Z,35.90
2019-02-26T12:29:08.731Z,35.80
2019-02-26T12:31:39.821Z,35.90
2019-02-26T12:34:11.826Z,36.50
2019-02-26T12:36:43.085Z,36.70
2019-02-26T12:39:16.023Z,37.10
2019-02-26T12:41:45.889Z,37.30
2019-02-26T12:44:20.845Z,36.60
2019-02-26T12:46:51.596Z,36.30
2019-02-26T12:49:25.767Z,36.20
2019-02-26T12:51:59.924Z,37.50
2019-02-26T12:54:33.666Z,36.60
2019-02-26T12:57:04.230Z,36.30
2019-02-26T12:59:38.088Z,35.50
2019-02-26T13:02:13.950Z,36.00
2019-02-26T13:04:44.325Z,36.50
2019-02-26T13:07:14.540Z,36.10
2019-02-26T13:09:51.163Z,36.40
2019-02-26T13:12:23.281Z,36.70
2019-02-26T13:15:02.244Z,35.50
2019-02-26T13:17:29.463Z,35.30
2019-02-26T13:20:01.912Z,35.70
2019-02-26T13:22:32.295Z,36.30
2019-02-26T13:25:03.569Z,36.90
2019-02-26T13:27:35.230Z,36.20
2019-02-26T13:30:07.342Z,35.90
2019-02-26T13:32:55.120Z,35.90
2019-02-26T13:35:09.420Z,35.30
2019-02-26T13:37:42.040Z,35.50
2019-02-26T13:40:13.673Z,35.20
2019-02-26T13:42:50.037Z,36.00
2019-02-26T13:45:23.470Z,36.90
2019-02-26T13:48:00.992Z,36.70
2019-02-26T13:50:28.186Z,37.10
2019-02-26T13:52:58.245Z,37.50
2019-02-26T13:55:30.770Z,37.50
2019-02-26T13:58:00.052Z,37.80
2019-02-26T14:00:30.204Z,38.00
2019-02-26T14:03:00.222Z,38.10
2019-02-26T14:05:37.845Z,38.60
2019-02-26T14:08:02.802Z,39.40
2019-02-26T14:10:32.887Z,39.40
2019-02-26T14:13:03.857Z,39.20
2019-02-26T14:15:34.131Z,38.90
2019-02-26T14:18:04.509Z,39.30
2019-02-26T14:20:34.601Z,39.60
2019-02-26T14:23:04.695Z,39.50
2019-02-26T14:25:34.706Z,40.00
2019-02-26T14:28:05.943Z,41.00
2019-02-26T14:30:37.050Z,40.80
2019-02-26T14:33:07.191Z,39.70
2019-02-26T14:35:37.281Z,41.20
2019-02-26T14:38:07.685Z,42.30
2019-02-26T14:40:37.792Z,42.90
2019-02-26T14:43:07.969Z,44.00
2019-02-26T14:45:41.160Z,43.60
2019-02-26T14:48:11.533Z,43.10
2019-02-26T14:50:41.719Z,43.40
2019-02-26T14:53:11.858Z,43.50
2019-02-26T14:55:41.987Z,43.90
2019-02-26T14:58:12.114Z,43.90
2019-02-26T15:00:42.677Z,44.30
2019-02-26T15:03:12.752Z,43.60
2019-02-26T15:05:42.949Z,44.00
2019-02-26T15:08:13.017Z,44.70
2019-02-26T15:10:43.226Z,45.10
2019-02-26T15:13:13.312Z,45.80
2019-02-26T15:15:43.403Z,46.60
2019-02-26T15:18:13.577Z,46.90
2019-02-26T15:20:43.667Z,47.90
2019-02-26T15:23:13.938Z,48.60
2019-02-26T15:25:44.043Z,48.80
2019-02-26T15:28:14.136Z,48.90
2019-02-26T15:30:44.326Z,49.50
2019-02-26T15:33:14.611Z,49.70
2019-02-26T15:35:46.914Z,50.80
2019-02-26T15:38:16.506Z,51.40
2019-02-26T15:40:46.641Z,52.40
2019-02-26T15:43:16.845Z,52.70
2019-02-26T15:45:51.938Z,53.40
2019-02-26T15:48:18.807Z,53.10
2019-02-26T15:50:52.038Z,53.50
2019-02-26T15:53:23.834Z,54.40
2019-02-26T15:55:54.013Z,54.80
2019-02-26T15:58:24.206Z,55.30
2019-02-26T16:00:54.328Z,56.60
2019-02-26T16:03:24.441Z,56.70
2019-02-26T16:05:56.510Z,56.90
2019-02-26T16:08:34.430Z,57.20
2019-02-26T16:10:58.494Z,57.60
2019-02-26T16:13:31.325Z,57.60
2019-02-26T16:16:01.707Z,56.90
2019-02-26T16:18:31.892Z,57.20
2019-02-26T16:21:02.135Z,56.80
2019-02-26T16:23:32.293Z,57.00
2019-02-26T16:26:02.408Z,57.50
2019-02-26T16:28:32.570Z,57.30
2019-02-26T16:31:04.522Z,58.40
2019-02-26T16:33:34.551Z,58.30
2019-02-26T16:36:04.727Z,58.60
2019-02-26T16:38:35.246Z,59.10
2019-02-26T16:41:05.612Z,59.20
2019-02-26T16:43:35.840Z,59.50
2019-02-26T16:46:08.322Z,60.30
2019-02-26T16:48:37.880Z,59.50
2019-02-26T16:51:09.374Z,59.80
2019-02-26T16:53:39.532Z,60.40
2019-02-26T16:56:09.816Z,60.60
2019-02-26T16:58:39.945Z,60.80
2019-02-26T17:01:11.593Z,61.10
2019-02-26T17:03:43.560Z,61.10
2019-02-26T17:06:13.810Z,61.00
2019-02-26T17:08:44.678Z,61.30
2019-02-26T17:11:15.818Z,61.40
2019-02-26T17:13:51.473Z,61.30
2019-02-26T17:16:23.326Z,61.20
2019-02-26T17:18:52.800Z,60.90
2019-02-26T17:21:25.835Z,61.10
2019-02-26T17:23:56.046Z,60.70
2019-02-26T17:26:26.293Z,59.70
2019-02-26T17:28:56.470Z,59.70
2019-02-26T17:31:28.706Z,59.90
2019-02-26T17:33:58.649Z,60.10
2019-02-26T17:36:35.142Z,60.30
2019-02-26T17:39:00.855Z,60.20
2019-02-26T17:41:31.116Z,59.60
2019-02-26T17:44:04.434Z,59.70
2019-02-26T17:46:34.476Z,59.70
2019-02-26T17:49:07.151Z,59.60
2019-02-26T17:51:38.623Z,59.10
2019-02-26T17:54:08.770Z,58.70
2019-02-26T17:56:39.090Z,59.20
2019-02-26T17:59:12.309Z,59.60
2019-02-26T18:01:46.080Z,59.80
2019-02-26T18:04:16.251Z,60.60
2019-02-26T18:06:46.514Z,60.10
2019-02-26T18:09:18.399Z,59.80
2019-02-26T18:11:48.550Z,59.40
2019-02-26T18:14:22.165Z,58.90
2019-02-26T18:16:52.510Z,59.00
2019-02-26T18:19:24.466Z,59.10
2019-02-26T18:21:54.992Z,59.10
2019-02-26T18:24:26.494Z,59.50
2019-02-26T18:26:56.744Z,59.30
2019-02-26T18:29:27.399Z,59.50
2019-02-26T18:31:57.642Z,59.60
2019-02-26T18:34:30.469Z,59.10
2019-02-26T18:37:00.959Z,58.80
2019-02-26T18:39:32.490Z,58.40
2019-02-26T18:42:02.776Z,58.00
2019-02-26T18:44:33.668Z,58.00
2019-02-26T18:47:07.100Z,58.20
2019-02-26T18:49:37.132Z,58.00
2019-02-26T18:52:09.119Z,58.20
2019-02-26T18:54:39.883Z,58.60
2019-02-26T18:57:13.726Z,59.20
2019-02-26T18:59:43.749Z,59.40
2019-02-26T19:02:17.459Z,59.80
2019-02-26T19:04:49.203Z,60.10
2019-02-26T19:07:19.706Z,60.20
2019-02-26T19:09:50.129Z,60.00
2019-02-26T19:12:21.219Z,59.70
2019-02-26T19:14:52.460Z,59.70
2019-02-26T19:17:26.600Z,60.00
2019-02-26T19:19:55.485Z,59.70
2019-02-26T19:22:27.215Z,59.40
2019-02-26T19:24:58.303Z,59.00
2019-02-26T19:27:28.729Z,59.00
2019-02-26T19:30:04.174Z,58.80
2019-02-26T19:32:33.815Z,58.70
2019-02-26T19:35:12.045Z,58.50
2019-02-26T19:37:36.624Z,58.50
2019-02-26T19:40:12.506Z,58.30
2019-02-26T19:42:42.955Z,58.10
2019-02-26T19:45:13.578Z,58.00
2019-02-26T19:47:43.958Z,58.00
2019-02-26T19:50:14.809Z,58.20
2019-02-26T19:52:46.642Z,58.70
2019-02-26T19:55:21.714Z,58.90
2019-02-26T19:57:54.703Z,58.70
2019-02-26T20:00:25.199Z,58.80
2019-02-26T20:02:56.964Z,58.60
2019-02-26T20:05:28.277Z,58.60
2019-02-26T20:07:59.056Z,58.20
2019-02-26T20:10:29.867Z,57.40
2019-02-26T20:13:01.362Z,56.80
2019-02-26T20:15:32.549Z,56.60
2019-02-26T20:18:03.106Z,56.90
2019-02-26T20:20:40.746Z,57.30
2019-02-26T20:23:06.679Z,57.00
2019-02-26T20:25:37.278Z,57.10
2019-02-26T20:28:08.140Z,55.90
2019-02-26T20:30:41.279Z,56.50
2019-02-26T20:33:13.403Z,56.40
2019-02-26T20:35:45.305Z,56.10
2019-02-26T20:38:16.244Z,56.10
2019-02-26T20:40:48.851Z,56.10
2019-02-26T20:43:18.657Z,56.50
2019-02-26T20:45:51.824Z,56.50
2019-02-26T20:48:22.099Z,56.90
2019-02-26T20:51:00.008Z,57.10
2019-02-26T20:53:32.534Z,56.80
2019-02-26T20:56:05.870Z,57.10
2019-02-26T20:58:36.467Z,57.70
2019-02-26T21:01:09.764Z,56.90
2019-02-26T21:03:44.512Z,57.00
2019-02-26T21:06:17.967Z,57.40
2019-02-26T21:08:50.009Z,57.30
2019-02-26T21:11:23.195Z,57.80
2019-02-26T21:13:53.500Z,57.50
2019-02-26T21:16:25.967Z,57.00
2019-02-26T21:18:56.922Z,56.50
2019-02-26T21:21:35.830Z,56.50
2019-02-26T21:24:06.377Z,57.00
2019-02-26T21:26:36.637Z,57.40
2019-02-26T21:29:06.895Z,57.90
2019-02-26T21:31:37.510Z,58.70
2019-02-26T21:34:07.735Z,58.80
2019-02-26T21:36:37.923Z,59.00
2019-02-26T21:39:10.917Z,59.50
2019-02-26T21:41:40.835Z,59.10
2019-02-26T21:44:15.863Z,58.90
2019-02-26T21:46:45.829Z,59.10
2019-02-26T21:49:16.051Z,58.60
2019-02-26T21:51:46.334Z,58.80
2019-02-26T21:54:16.593Z,59.30
2019-02-26T21:56:48.740Z,58.80
2019-02-26T21:59:18.570Z,58.10
2019-02-26T22:01:50.375Z,57.80
2019-02-26T22:04:20.608Z,57.90
2019-02-26T22:06:50.826Z,58.10
2019-02-26T22:09:24.085Z,58.30
2019-02-26T22:11:54.249Z,58.00
2019-02-26T22:14:25.928Z,58.50
2019-02-26T22:16:57.114Z,58.80
2019-02-26T22:19:27.470Z,59.20
2019-02-26T22:21:58.634Z,58.90
2019-02-26T22:24:28.654Z,58.60
2019-02-26T22:27:00.296Z,59.00
2019-02-26T22:29:31.592Z,58.90
2019-02-26T22:32:02.821Z,58.80
2019-02-26T22:34:35.864Z,58.90
2019-02-26T22:37:07.269Z,58.90
2019-02-26T22:39:37.773Z,58.90
2019-02-26T22:42:08.580Z,59.10
2019-02-26T22:44:40.394Z,59.40
2019-02-26T22:47:13.633Z,59.20
2019-02-26T22:49:43.762Z,59.00
2019-02-26T22:52:15.266Z,58.70
2019-02-26T22:54:48.158Z,58.80
2019-02-26T22:57:18.226Z,59.40
2019-02-26T22:59:50.440Z,59.50
2019-02-26T23:02:21.765Z,60.00
2019-02-26T23:04:54.302Z,60.00
2019-02-26T23:07:26.096Z,59.70
2019-02-26T23:09:59.379Z,59.80
2019-02-26T23:12:29.657Z,60.40
2019-02-26T23:15:03.020Z,60.30
2019-02-26T23:17:33.476Z,60.10
2019-02-26T23:20:03.497Z,60.40
2019-02-26T23:22:34.162Z,60.70
2019-02-26T23:25:11.372Z,61.00
2019-02-26T23:27:41.360Z,61.00
2019-02-26T23:30:12.277Z,61.60
2019-02-26T23:32:43.352Z,62.20
2019-02-26T23:35:14.705Z,62.10
2019-02-26T23:37:44.835Z,62.30
2019-02-26T23:40:17.744Z,62.10
2019-02-26T23:42:48.831Z,62.00
2019-02-26T23:45:23.929Z,61.60
2019-02-26T23:47:51.775Z,61.40
2019-02-26T23:50:22.589Z,61.50
2019-02-26T23:52:54.477Z,61.80
2019-02-26T23:55:25.373Z,61.40
2019-02-26T23:57:59.445Z,61.10
